createdAt,value
2022-11-14T00:01:10.379Z,6.10
2022-11-14T00:03:56.122Z,6.10
2022-11-14T00:06:41.674Z,6.10
2022-11-14T00:09:28.184Z,6.00
2022-11-14T00:12:14.016Z,6.00
2022-11-14T00:14:59.896Z,6.00
2022-11-14T00:17:45.645Z,6.00
2022-11-14T00:20:32.511Z,5.90
2022-11-14T00:23:19.397Z,5.90
2022-11-14T00:26:05.259Z,5.80
2022-11-14T00:28:50.755Z,5.80
2022-11-14T00:31:36.278Z,5.80
2022-11-14T00:34:21.843Z,5.70
2022-11-14T00:37:07.613Z,5.70
2022-11-14T00:39:53.208Z,5.60
2022-11-14T00:42:38.651Z,5.60
2022-11-14T00:45:24.625Z,5.60
2022-11-14T00:48:10.124Z,5.50
2022-11-14T00:50:55.786Z,5.50
2022-11-14T00:53:41.319Z,5.50
2022-11-14T00:56:26.669Z,5.40
2022-11-14T00:59:12.301Z,5.50
2022-11-14T01:01:58.187Z,5.50
2022-11-14T01:04:43.926Z,5.50
2022-11-14T01:07:30.149Z,5.50
2022-11-14T01:10:17.726Z,5.50
2022-11-14T01:13:03.375Z,5.50
2022-11-14T01:15:49.897Z,5.60
2022-11-14T01:18:36.592Z,5.50
2022-11-14T01:21:22.194Z,5.60
2022-11-14T01:24:08.477Z,5.60
2022-11-14T01:26:56.437Z,5.50
2022-11-14T01:29:42.022Z,5.60
2022-11-14T01:32:27.903Z,5.60
2022-11-14T01:35:13.246Z,5.70
2022-11-14T01:37:59.386Z,5.70
2022-11-14T01:40:46.579Z,5.70
2022-11-14T01:43:38.684Z,5.80
2022-11-14T01:46:38.051Z,5.80
2022-11-14T01:49:36.168Z,5.90
2022-11-14T01:52:38.273Z,5.90
2022-11-14T01:55:24.231Z,6.00
2022-11-14T01:58:10.737Z,6.00
2022-11-14T02:00:57.614Z,6.00
2022-11-14T02:03:46.340Z,6.00
2022-11-14T02:06:33.216Z,6.10
2022-11-14T02:09:18.933Z,6.20
2022-11-14T02:12:09.087Z,6.10
2022-11-14T02:14:57.367Z,6.10
2022-11-14T02:17:44.371Z,6.10
2022-11-14T02:20:35.974Z,6.10
2022-11-14T02:23:28.251Z,6.00
2022-11-14T02:26:21.401Z,6.00
2022-11-14T02:29:07.729Z,6.00
2022-11-14T02:31:53.507Z,6.00
2022-11-14T02:34:39.556Z,5.90
2022-11-14T02:37:25.373Z,5.80
2022-11-14T02:40:11.726Z,5.80
2022-11-14T02:42:57.358Z,5.70
2022-11-14T02:45:42.988Z,5.80
2022-11-14T02:48:28.833Z,5.70
2022-11-14T02:51:14.896Z,5.70
2022-11-14T02:54:00.288Z,5.70
2022-11-14T02:56:45.742Z,5.70
2022-11-14T02:59:31.229Z,5.70
2022-11-14T03:02:16.695Z,5.80
2022-11-14T03:05:02.118Z,6.00
2022-11-14T03:07:48.118Z,6.10
2022-11-14T03:10:33.449Z,6.20
2022-11-14T03:13:18.827Z,6.30
2022-11-14T03:16:10.658Z,6.40
2022-11-14T03:18:56.319Z,6.50
2022-11-14T03:21:41.956Z,6.50
2022-11-14T03:24:27.452Z,6.60
2022-11-14T03:27:12.912Z,6.60
2022-11-14T03:29:58.511Z,6.80
2022-11-14T03:32:44.476Z,6.90
2022-11-14T03:35:29.922Z,6.90
2022-11-14T03:38:15.582Z,6.90
2022-11-14T03:41:01.616Z,6.90
2022-11-14T03:43:47.284Z,7.00
2022-11-14T03:46:32.872Z,7.10
2022-11-14T03:49:18.789Z,7.10
2022-11-14T03:52:04.825Z,7.10
2022-11-14T03:54:50.932Z,7.10
2022-11-14T03:57:36.673Z,7.20
2022-11-14T04:00:22.636Z,7.20
2022-11-14T04:03:08.308Z,7.10
2022-11-14T04:05:53.904Z,7.20
2022-11-14T04:08:41.444Z,7.30
2022-11-14T04:11:26.874Z,7.30
2022-11-14T04:14:12.600Z,7.30
2022-11-14T04:16:57.899Z,7.30
2022-11-14T04:19:43.445Z,7.30
2022-11-14T04:22:28.996Z,7.40
2022-11-14T04:25:14.417Z,7.40
2022-11-14T04:28:00.094Z,7.40
2022-11-14T04:30:45.546Z,7.40
2022-11-14T04:33:31.409Z,7.40
2022-11-14T04:36:16.914Z,7.40
2022-11-14T04:39:02.451Z,7.40
2022-11-14T04:41:47.857Z,7.40
2022-11-14T04:44:33.228Z,7.40
2022-11-14T04:47:18.783Z,7.30
2022-11-14T04:50:04.836Z,7.40
2022-11-14T04:52:54.085Z,7.30
2022-11-14T04:55:39.805Z,7.40
2022-11-14T04:58:25.382Z,7.40
2022-11-14T05:01:12.231Z,7.40
2022-11-14T05:03:58.302Z,7.40
2022-11-14T05:06:44.382Z,7.40
2022-11-14T05:09:30.280Z,7.30
2022-11-14T05:12:15.753Z,7.30
2022-11-14T05:15:01.623Z,7.30
2022-11-14T05:17:47.461Z,7.30
2022-11-14T05:20:33.435Z,7.20
2022-11-14T05:23:23.243Z,7.20
2022-11-14T05:26:18.445Z,7.20
2022-11-14T05:29:04.704Z,7.20
2022-11-14T05:31:50.500Z,7.20
2022-11-14T05:34:36.225Z,7.10
2022-11-14T05:37:21.533Z,7.10
2022-11-14T05:40:07.675Z,7.20
2022-11-14T05:42:56.676Z,7.20
2022-11-14T05:45:42.251Z,7.20
2022-11-14T05:48:29.358Z,7.10
2022-11-14T05:51:15.378Z,7.10
2022-11-14T05:54:00.735Z,7.10
2022-11-14T05:56:46.563Z,7.20
2022-11-14T05:59:32.923Z,7.20
2022-11-14T06:02:18.820Z,7.20
2022-11-14T06:05:05.392Z,7.20
2022-11-14T06:07:58.614Z,7.20
2022-11-14T06:10:44.041Z,7.30
2022-11-14T06:13:30.293Z,7.30
2022-11-14T06:16:19.082Z,7.20
2022-11-14T06:19:05.433Z,7.30
2022-11-14T06:21:51.025Z,7.40
2022-11-14T06:24:36.753Z,7.30
2022-11-14T06:27:22.739Z,7.30
2022-11-14T06:30:09.269Z,7.30
2022-11-14T06:33:01.249Z,7.40
2022-11-14T06:35:47.195Z,7.40
2022-11-14T06:38:35.355Z,7.40
2022-11-14T06:41:22.881Z,7.50
2022-11-14T06:44:08.947Z,7.50
2022-11-14T06:46:54.273Z,7.50
2022-11-14T06:49:40.871Z,7.50
2022-11-14T06:52:27.301Z,7.50
2022-11-14T06:55:13.220Z,7.50
2022-11-14T06:57:58.752Z,7.50
2022-11-14T07:00:44.228Z,7.50
2022-11-14T07:03:30.195Z,7.60
2022-11-14T07:06:23.036Z,7.60
2022-11-14T07:09:11.204Z,7.60
2022-11-14T07:11:56.578Z,7.60
2022-11-14T07:14:42.472Z,7.80
2022-11-14T07:17:31.209Z,7.80
2022-11-14T07:20:20.803Z,7.90
2022-11-14T07:23:06.962Z,7.90
2022-11-14T07:25:52.576Z,7.90
2022-11-14T07:28:42.323Z,7.90
2022-11-14T07:31:27.896Z,8.00
2022-11-14T07:34:13.950Z,8.00
2022-11-14T07:36:59.316Z,8.10
2022-11-14T07:39:46.050Z,8.10
2022-11-14T07:42:31.603Z,8.20
2022-11-14T07:45:17.149Z,8.20
2022-11-14T07:48:03.463Z,8.30
2022-11-14T07:50:50.641Z,8.40
2022-11-14T07:53:36.339Z,8.50
2022-11-14T07:56:22.473Z,8.50
2022-11-14T07:59:08.453Z,8.60
2022-11-14T08:01:54.419Z,8.70
2022-11-14T08:04:43.150Z,8.80
2022-11-14T08:07:28.723Z,8.90
2022-11-14T08:10:15.567Z,8.90
2022-11-14T08:13:30.240Z,8.90
2022-11-14T08:16:13.736Z,9.00
2022-11-14T08:19:00.875Z,9.10
2022-11-14T08:21:46.501Z,9.10
2022-11-14T08:24:32.439Z,9.20
2022-11-14T08:27:18.857Z,9.30
2022-11-14T08:30:05.828Z,9.40
2022-11-14T08:32:51.783Z,9.40
2022-11-14T08:35:37.541Z,9.40
2022-11-14T08:38:23.196Z,9.30
2022-11-14T08:41:09.401Z,9.30
2022-11-14T08:43:55.139Z,9.40
2022-11-14T08:46:40.824Z,9.50
2022-11-14T08:49:26.985Z,9.60
2022-11-14T08:52:16.700Z,9.60
2022-11-14T08:55:02.853Z,9.70
2022-11-14T08:57:49.906Z,9.80
2022-11-14T09:00:36.539Z,9.90
2022-11-14T09:03:22.357Z,10.00
2022-11-14T09:06:08.389Z,10.00
2022-11-14T09:08:53.905Z,9.90
2022-11-14T09:11:39.595Z,10.10
2022-11-14T09:14:25.686Z,10.00
2022-11-14T09:17:11.115Z,10.10
2022-11-14T09:19:57.120Z,10.20
2022-11-14T09:22:43.321Z,10.10
2022-11-14T09:25:30.799Z,10.20
2022-11-14T09:28:16.293Z,10.30
2022-11-14T09:31:04.924Z,10.30
2022-11-14T09:33:50.878Z,10.30
2022-11-14T09:36:37.143Z,10.30
2022-11-14T09:39:22.426Z,10.40
2022-11-14T09:42:40.370Z,10.30
2022-11-14T09:45:27.783Z,10.30
2022-11-14T09:48:18.036Z,10.30
2022-11-14T09:51:21.394Z,10.30
2022-11-14T09:54:25.209Z,10.40
2022-11-14T09:57:17.888Z,10.50
2022-11-14T10:00:13.544Z,10.50
2022-11-14T10:03:11.283Z,10.60
2022-11-14T10:06:22.857Z,10.70
2022-11-14T10:09:51.222Z,10.60
2022-11-14T10:12:46.454Z,10.80
2022-11-14T10:15:42.786Z,10.90
2022-11-14T10:19:00.868Z,10.90
2022-11-14T10:22:23.380Z,10.90
2022-11-14T10:25:49.311Z,10.80
2022-11-14T10:29:05.620Z,10.90
2022-11-14T10:32:28.780Z,11.10
2022-11-14T10:35:35.231Z,11.20
2022-11-14T10:38:37.006Z,11.30
2022-11-14T10:41:49.927Z,11.30
2022-11-14T10:44:45.141Z,11.20
2022-11-14T10:47:48.972Z,11.20
2022-11-14T10:50:48.116Z,11.30
2022-11-14T10:53:45.703Z,11.70
2022-11-14T10:56:31.526Z,12.50
2022-11-14T10:59:17.598Z,12.90
2022-11-14T11:02:03.357Z,13.20
2022-11-14T11:04:49.202Z,13.30
2022-11-14T11:08:28.232Z,13.90
2022-11-14T11:11:30.308Z,14.10
2022-11-14T11:14:19.878Z,14.70
2022-11-14T11:17:28.064Z,15.30
2022-11-14T11:20:33.604Z,16.00
2022-11-14T11:23:25.806Z,15.60
2022-11-14T11:26:32.146Z,16.60
2022-11-14T11:29:19.972Z,17.10
2022-11-14T11:32:07.530Z,17.50
2022-11-14T11:34:53.919Z,17.40
2022-11-14T11:37:55.008Z,17.70
2022-11-14T11:40:44.444Z,18.10
2022-11-14T11:43:56.632Z,17.70
2022-11-14T11:46:48.555Z,18.60
2022-11-14T11:49:45.410Z,18.50
2022-11-14T11:52:47.584Z,19.50
2022-11-14T11:55:49.494Z,18.80
2022-11-14T11:58:50.917Z,19.00
2022-11-14T12:01:36.853Z,19.20
2022-11-14T12:04:22.495Z,20.60
2022-11-14T12:07:19.935Z,21.10
2022-11-14T12:10:29.022Z,19.50
2022-11-14T12:13:47.217Z,20.20
2022-11-14T12:17:10.147Z,20.10
2022-11-14T12:20:36.794Z,21.50
2022-11-14T12:23:43.754Z,22.80
2022-11-14T12:26:44.742Z,24.00
2022-11-14T12:30:22.251Z,22.50
2022-11-14T12:33:17.155Z,22.10
2022-11-14T12:36:10.669Z,21.40
2022-11-14T12:38:57.744Z,22.30
2022-11-14T12:41:43.796Z,21.80
2022-11-14T12:44:29.669Z,21.90
2022-11-14T12:47:28.239Z,22.90
2022-11-14T12:50:42.501Z,22.30
2022-11-14T12:53:37.128Z,21.50
2022-11-14T12:56:32.158Z,21.40
2022-11-14T12:59:40.828Z,21.50
2022-11-14T13:02:55.831Z,20.50
2022-11-14T13:06:11.603Z,20.80
2022-11-14T13:09:34.707Z,21.60
2022-11-14T13:12:51.773Z,22.00
2022-11-14T13:16:11.622Z,22.00
2022-11-14T13:19:32.504Z,20.90
2022-11-14T13:22:37.266Z,20.90
2022-11-14T13:25:24.270Z,22.20
2022-11-14T13:28:38.986Z,21.70
2022-11-14T13:31:36.657Z,21.40
2022-11-14T13:34:53.395Z,21.00
2022-11-14T13:38:18.744Z,21.30
2022-11-14T13:41:24.377Z,20.80
2022-11-14T13:44:24.817Z,19.80
2022-11-14T13:47:34.882Z,20.60
2022-11-14T13:50:33.382Z,19.90
2022-11-14T13:53:27.155Z,20.30
2022-11-14T13:56:34.878Z,20.60
2022-11-14T13:59:41.422Z,19.70
2022-11-14T14:02:36.068Z,19.80
2022-11-14T14:05:28.277Z,19.20
2022-11-14T14:08:58.098Z,17.90
2022-11-14T14:12:04.652Z,16.30
2022-11-14T14:15:15.396Z,14.70
2022-11-14T14:18:29.004Z,14.00
2022-11-14T14:21:48.573Z,13.40
2022-11-14T14:24:57.888Z,12.80
2022-11-14T14:27:58.026Z,12.60
2022-11-14T14:31:11.445Z,12.40
2022-11-14T14:33:57.268Z,12.00
2022-11-14T14:36:52.957Z,12.10
2022-11-14T14:39:38.798Z,11.80
2022-11-14T14:42:29.450Z,11.60
2022-11-14T14:45:21.506Z,11.40
2022-11-14T14:48:18.592Z,11.40
2022-11-14T14:51:05.864Z,11.30
2022-11-14T14:53:53.970Z,11.30
2022-11-14T14:56:40.264Z,11.10
2022-11-14T14:59:29.400Z,11.10
2022-11-14T15:02:17.956Z,11.00
2022-11-14T15:05:05.706Z,10.90
2022-11-14T15:07:57.463Z,10.70
2022-11-14T15:10:43.832Z,10.60
2022-11-14T15:13:31.387Z,10.60
2022-11-14T15:16:17.156Z,10.50
2022-11-14T15:19:04.099Z,10.30
2022-11-14T15:22:24.582Z,10.20
2022-11-14T15:25:13.346Z,10.20
2022-11-14T15:28:00.448Z,10.10
2022-11-14T15:31:04.447Z,10.00
2022-11-14T15:34:19.718Z,10.00
2022-11-14T15:37:21.724Z,9.90
2022-11-14T15:40:19.553Z,9.90
2022-11-14T15:43:49.380Z,9.70
2022-11-14T15:46:35.392Z,9.70
2022-11-14T15:49:24.334Z,9.60
2022-11-14T15:52:35.428Z,9.50
2022-11-14T15:55:24.317Z,9.50
2022-11-14T15:58:28.715Z,9.40
2022-11-14T16:01:27.459Z,9.40
2022-11-14T16:04:23.474Z,9.30
2022-11-14T16:07:17.242Z,9.20
2022-11-14T16:10:03.690Z,9.10
2022-11-14T16:12:52.433Z,9.10
2022-11-14T16:15:38.955Z,9.10
2022-11-14T16:18:24.568Z,8.90
2022-11-14T16:21:16.442Z,8.90
2022-11-14T16:24:02.139Z,8.90
2022-11-14T16:26:49.004Z,8.80
2022-11-14T16:29:34.836Z,8.70
2022-11-14T16:32:20.976Z,8.70
2022-11-14T16:35:13.485Z,8.70
2022-11-14T16:37:59.219Z,8.60
2022-11-14T16:40:45.369Z,8.50
2022-11-14T16:43:31.376Z,8.40
2022-11-14T16:46:17.375Z,8.40
2022-11-14T16:49:02.961Z,8.30
2022-11-14T16:51:50.596Z,8.30
2022-11-14T16:54:37.113Z,8.20
2022-11-14T16:57:23.191Z,8.10
2022-11-14T17:00:12.626Z,8.10
2022-11-14T17:02:58.392Z,8.00
2022-11-14T17:05:46.470Z,8.00
2022-11-14T17:08:32.346Z,8.00
2022-11-14T17:11:18.332Z,7.90
2022-11-14T17:14:03.965Z,7.90
2022-11-14T17:16:49.364Z,7.90
2022-11-14T17:19:34.923Z,7.80
2022-11-14T17:22:20.569Z,7.70
2022-11-14T17:25:06.658Z,7.80
2022-11-14T17:27:52.502Z,7.70
2022-11-14T17:30:42.668Z,7.70
2022-11-14T17:33:29.149Z,7.60
2022-11-14T17:36:15.258Z,7.60
2022-11-14T17:39:01.417Z,7.60
2022-11-14T17:41:47.548Z,7.60
2022-11-14T17:44:33.638Z,7.60
2022-11-14T17:47:20.616Z,7.50
2022-11-14T17:50:06.881Z,7.50
2022-11-14T17:52:52.954Z,7.50
2022-11-14T17:55:38.807Z,7.40
2022-11-14T17:58:25.002Z,7.40
2022-11-14T18:01:16.597Z,7.40
2022-11-14T18:04:06.095Z,7.40
2022-11-14T18:06:53.386Z,7.40
2022-11-14T18:09:42.181Z,7.50
2022-11-14T18:12:28.296Z,7.40
2022-11-14T18:15:15.188Z,7.40
2022-11-14T18:18:01.376Z,7.30
2022-11-14T18:20:47.435Z,7.20
2022-11-14T18:23:33.362Z,7.20
2022-11-14T18:26:21.689Z,7.20
2022-11-14T18:29:07.805Z,7.10
2022-11-14T18:31:53.307Z,7.00
2022-11-14T18:34:40.838Z,7.00
2022-11-14T18:37:26.364Z,7.10
2022-11-14T18:40:16.515Z,7.10
2022-11-14T18:43:02.506Z,7.00
2022-11-14T18:45:48.555Z,7.00
2022-11-14T18:48:36.190Z,7.00
2022-11-14T18:51:26.457Z,7.00
2022-11-14T18:54:15.854Z,6.90
2022-11-14T18:57:01.854Z,6.80
2022-11-14T18:59:47.699Z,6.70
2022-11-14T19:02:33.237Z,6.50
2022-11-14T19:05:19.277Z,6.30
2022-11-14T19:08:07.356Z,6.20
2022-11-14T19:10:53.015Z,6.10
2022-11-14T19:13:38.705Z,6.00
2022-11-14T19:16:24.428Z,6.10
2022-11-14T19:19:11.013Z,6.10
2022-11-14T19:21:56.997Z,6.10
2022-11-14T19:24:43.230Z,6.10
2022-11-14T19:27:29.005Z,6.00
2022-11-14T19:30:16.955Z,6.00
2022-11-14T19:33:04.833Z,6.10
2022-11-14T19:35:50.782Z,6.10
2022-11-14T19:38:36.354Z,6.20
2022-11-14T19:41:27.543Z,6.20
2022-11-14T19:44:13.085Z,6.20
2022-11-14T19:46:58.919Z,6.30
2022-11-14T19:49:44.342Z,6.30
2022-11-14T19:52:29.896Z,6.40
2022-11-14T19:55:15.708Z,6.40
2022-11-14T19:58:01.211Z,6.50
2022-11-14T20:00:46.785Z,6.50
2022-11-14T20:03:32.824Z,6.50
2022-11-14T20:06:34.379Z,6.50
2022-11-14T20:09:20.120Z,6.50
2022-11-14T20:12:05.958Z,6.40
2022-11-14T20:14:51.702Z,6.40
2022-11-14T20:17:37.337Z,6.40
2022-11-14T20:20:22.917Z,6.40
2022-11-14T20:23:09.921Z,6.50
2022-11-14T20:25:55.785Z,6.50
2022-11-14T20:28:44.587Z,6.50
2022-11-14T20:31:31.606Z,6.50
2022-11-14T20:34:17.419Z,6.50
2022-11-14T20:37:11.659Z,6.40
2022-11-14T20:39:57.965Z,6.40
2022-11-14T20:42:49.171Z,6.30
2022-11-14T20:45:35.879Z,6.30
2022-11-14T20:48:21.657Z,6.30
2022-11-14T20:51:12.636Z,6.30
2022-11-14T20:53:58.721Z,6.30
2022-11-14T20:56:44.346Z,6.30
2022-11-14T20:59:30.539Z,6.30
2022-11-14T21:02:16.412Z,6.20
2022-11-14T21:05:02.698Z,6.20
2022-11-14T21:07:48.624Z,6.20
2022-11-14T21:10:45.601Z,6.30
2022-11-14T21:13:56.098Z,6.30
2022-11-14T21:16:42.163Z,6.30
2022-11-14T21:19:29.369Z,6.30
2022-11-14T21:22:15.632Z,6.20
2022-11-14T21:25:01.920Z,6.20
2022-11-14T21:27:47.590Z,6.30
2022-11-14T21:30:34.703Z,6.40
2022-11-14T21:33:20.290Z,6.20
2022-11-14T21:36:30.102Z,6.10
2022-11-14T21:39:16.823Z,6.10
2022-11-14T21:42:03.203Z,6.10
2022-11-14T21:44:48.657Z,6.20
2022-11-14T21:47:34.854Z,6.10
2022-11-14T21:50:20.439Z,6.20
2022-11-14T21:53:15.876Z,6.20
2022-11-14T21:56:27.862Z,6.20
2022-11-14T21:59:18.779Z,6.20
2022-11-14T22:02:23.585Z,6.30
2022-11-14T22:05:09.126Z,6.20
2022-11-14T22:07:54.676Z,6.10
2022-11-14T22:10:40.709Z,6.20
2022-11-14T22:13:26.226Z,6.10
2022-11-14T22:16:12.134Z,6.10
2022-11-14T22:19:04.569Z,6.10
2022-11-14T22:21:50.912Z,6.10
2022-11-14T22:24:36.921Z,6.00
2022-11-14T22:27:22.528Z,6.10
2022-11-14T22:30:08.781Z,6.00
2022-11-14T22:32:54.422Z,5.90
2022-11-14T22:35:40.036Z,5.80
2022-11-14T22:38:28.765Z,5.80
2022-11-14T22:41:19.277Z,5.80
2022-11-14T22:44:05.239Z,5.80
2022-11-14T22:46:50.703Z,5.80
2022-11-14T22:49:36.135Z,5.80
2022-11-14T22:52:21.551Z,5.80
2022-11-14T22:55:07.382Z,5.80
2022-11-14T22:57:53.037Z,5.90
2022-11-14T23:00:38.685Z,6.00
2022-11-14T23:03:49.298Z,6.10
2022-11-14T23:06:35.482Z,6.10
2022-11-14T23:09:21.471Z,6.10
2022-11-14T23:12:07.716Z,6.10
2022-11-14T23:14:53.595Z,6.10
2022-11-14T23:17:39.228Z,6.30
2022-11-14T23:20:24.638Z,6.30
2022-11-14T23:23:10.299Z,6.20
2022-11-14T23:25:56.099Z,6.10
2022-11-14T23:28:41.483Z,6.10
2022-11-14T23:31:27.265Z,6.00
2022-11-14T23:34:12.880Z,6.00
2022-11-14T23:36:58.252Z,5.90
2022-11-14T23:39:43.767Z,5.90
2022-11-14T23:42:29.117Z,5.80
2022-11-14T23:45:14.570Z,5.80
2022-11-14T23:47:59.975Z,5.80
2022-11-14T23:50:49.820Z,5.80
2022-11-14T23:53:35.566Z,5.80
2022-11-14T23:56:20.943Z,5.70
2022-11-14T23:59:06.351Z,5.70
